Time;durP1;ratioP1;P1;durP2;ratioP2;P2;SDS_P1;SDS_P2;PMS_P1;PMS_P2;Temp;Humidity;BMP_temperature;BMP_pressure;BME280_temperature;BME280_humidity;BME280_pressure;Samples;Min_cycle;Max_cycle;Signal;HPM_P1;HPM_P2
2023/04/24 00:00:56;;;;;;;0.35;0.30;;;11.10;99.90;;;;;;5034566;28;20127;-71
2023/04/24 00:03:23;;;;;;;1.88;0.35;;;11.10;99.90;;;;;;5034599;28;20045;-71
2023/04/24 00:05:48;;;;;;;1.25;0.30;;;11.10;99.90;;;;;;5034482;28;20033;-71
2023/04/24 00:08:14;;;;;;;0.85;0.40;;;11.10;99.90;;;;;;5035170;28;20174;-71
2023/04/24 00:10:40;;;;;;;1.00;0.40;;;11.10;99.90;;;;;;5038044;28;20048;-71
2023/04/24 00:13:06;;;;;;;0.60;0.20;;;11.00;99.90;;;;;;5038211;28;20045;-71
2023/04/24 00:15:32;;;;;;;1.00;0.30;;;11.00;99.90;;;;;;5038054;28;20099;-71
2023/04/24 00:17:57;;;;;;;1.13;0.30;;;11.00;99.90;;;;;;5037952;28;20043;-71
2023/04/24 00:20:23;;;;;;;0.65;0.30;;;10.90;99.90;;;;;;5021484;28;20051;-71
2023/04/24 00:22:48;;;;;;;1.80;0.30;;;10.80;99.90;;;;;;5037936;28;20043;-71
2023/04/24 00:25:15;;;;;;;2.65;0.75;;;10.80;99.90;;;;;;5037871;28;20045;-71
2023/04/24 00:27:40;;;;;;;0.43;0.32;;;10.80;99.90;;;;;;5037752;28;20054;-71
2023/04/24 00:30:06;;;;;;;0.38;0.30;;;10.80;99.90;;;;;;5037671;28;20033;-71
2023/04/24 00:32:32;;;;;;;1.35;0.43;;;10.80;99.90;;;;;;5037803;28;20048;-71
2023/04/24 00:34:57;;;;;;;0.98;0.50;;;10.80;99.90;;;;;;5037718;28;20036;-71
2023/04/24 00:37:23;;;;;;;2.08;0.52;;;10.80;99.90;;;;;;5037597;28;20037;-71
2023/04/24 00:39:49;;;;;;;0.98;0.50;;;10.80;99.90;;;;;;5037938;28;20056;-71
2023/04/24 00:42:14;;;;;;;2.08;0.50;;;10.80;99.90;;;;;;5037547;28;20492;-71
2023/04/24 00:44:40;;;;;;;0.50;0.50;;;10.70;99.90;;;;;;5037529;28;20059;-71
2023/04/24 00:47:07;;;;;;;1.88;0.70;;;10.80;99.90;;;;;;5037304;28;20036;-71
2023/04/24 00:49:33;;;;;;;0.75;0.52;;;10.80;99.90;;;;;;5037338;28;20033;-71
2023/04/24 00:51:59;;;;;;;0.70;0.70;;;10.70;99.90;;;;;;5037662;28;20041;-71
2023/04/24 00:54:25;;;;;;;0.60;0.60;;;10.70;99.90;;;;;;5037362;28;20501;-71
2023/04/24 00:56:51;;;;;;;1.60;1.02;;;10.70;99.90;;;;;;5037227;28;20040;-71
2023/04/24 00:59:17;;;;;;;1.08;0.90;;;10.70;99.90;;;;;;5037511;28;20081;-71
2023/04/24 01:01:44;;;;;;;1.63;1.08;;;10.70;99.90;;;;;;5037250;28;20048;-71
2023/04/24 01:04:11;;;;;;;1.58;1.10;;;10.60;99.90;;;;;;5037150;28;20080;-71
2023/04/24 01:06:39;;;;;;;1.70;1.38;;;10.60;99.90;;;;;;5037092;28;20094;-71
2023/04/24 01:09:04;;;;;;;2.45;1.67;;;10.50;99.90;;;;;;5036992;28;20037;-71
2023/04/24 01:11:31;;;;;;;2.10;1.70;;;10.40;99.90;;;;;;5037004;28;20143;-71
2023/04/24 01:13:56;;;;;;;2.10;1.90;;;10.40;99.90;;;;;;5037228;28;20037;-71
2023/04/24 01:16:22;;;;;;;2.08;1.88;;;10.40;99.90;;;;;;5036830;28;20402;-71
2023/04/24 01:18:48;;;;;;;2.15;2.00;;;10.30;99.90;;;;;;5036792;28;20077;-71
2023/04/24 01:21:16;;;;;;;2.60;2.15;;;10.30;99.90;;;;;;5020277;28;20129;-71
2023/04/24 01:23:43;;;;;;;2.67;2.47;;;10.30;99.90;;;;;;5036785;28;20049;-71
2023/04/24 01:26:08;;;;;;;2.88;2.67;;;10.20;99.90;;;;;;5036903;28;20080;-70
2023/04/24 01:28:34;;;;;;;3.03;2.72;;;10.20;99.90;;;;;;5036658;28;20472;-71
2023/04/24 01:31:00;;;;;;;3.67;3.10;;;10.20;99.90;;;;;;5036658;28;20049;-71
2023/04/24 01:33:26;;;;;;;3.70;3.35;;;10.20;99.90;;;;;;5036630;28;20033;-71
2023/04/24 01:35:52;;;;;;;4.45;3.67;;;10.20;99.90;;;;;;5036391;28;20043;-71
2023/04/24 01:38:17;;;;;;;4.57;4.10;;;10.20;99.90;;;;;;5036471;28;20044;-71
2023/04/24 01:40:43;;;;;;;5.00;4.05;;;10.20;99.90;;;;;;5036744;28;20033;-71
2023/04/24 01:43:09;;;;;;;4.65;4.25;;;10.20;99.90;;;;;;5036346;28;20501;-71
2023/04/24 01:45:34;;;;;;;5.13;4.63;;;10.20;99.90;;;;;;5036270;28;20084;-71
2023/04/24 01:48:00;;;;;;;5.22;4.43;;;10.20;99.90;;;;;;5036287;28;20076;-71
2023/04/24 01:50:26;;;;;;;5.45;4.90;;;10.20;99.90;;;;;;5036426;28;20074;-71
2023/04/24 01:52:52;;;;;;;5.00;4.60;;;10.20;99.90;;;;;;5019784;28;20486;-71
2023/04/24 01:55:18;;;;;;;5.57;5.07;;;10.20;99.90;;;;;;5036172;28;20040;-71
2023/04/24 01:57:43;;;;;;;5.20;4.80;;;10.20;99.90;;;;;;5036084;28;20044;-71
2023/04/24 02:00:11;;;;;;;5.22;4.82;;;10.20;99.90;;;;;;5036076;28;20086;-71
2023/04/24 02:02:38;;;;;;;5.00;4.60;;;10.20;99.90;;;;;;5035991;28;20045;-70
2023/04/24 02:05:06;;;;;;;6.55;5.00;;;10.20;99.90;;;;;;5036256;28;20516;-71
2023/04/24 02:07:32;;;;;;;5.55;5.05;;;10.20;99.90;;;;;;5036499;28;20055;-71
2023/04/24 02:09:58;;;;;;;4.43;4.10;;;10.10;99.90;;;;;;5035887;28;20064;-71
2023/04/24 02:12:23;;;;;;;4.90;4.50;;;10.10;99.90;;;;;;5019521;28;20509;-71
2023/04/24 02:14:49;;;;;;;5.35;4.25;;;10.10;99.90;;;;;;5035888;28;20041;-71
2023/04/24 02:17:15;;;;;;;4.93;4.50;;;10.10;99.90;;;;;;5035715;28;20037;-71
2023/04/24 02:19:41;;;;;;;4.45;4.10;;;10.10;99.90;;;;;;5019539;28;20033;-71
2023/04/24 02:22:07;;;;;;;4.55;4.15;;;10.00;99.90;;;;;;5035715;28;20508;-71
2023/04/24 02:24:32;;;;;;;4.03;3.72;;;10.00;99.90;;;;;;5035934;28;20048;-71
2023/04/24 02:26:58;;;;;;;4.07;3.78;;;9.90;99.90;;;;;;5035847;28;20459;-71
2023/04/24 02:29:24;;;;;;;4.55;4.03;;;9.90;99.90;;;;;;5035538;28;20044;-71
2023/04/24 02:31:50;;;;;;;4.60;4.20;;;9.90;99.90;;;;;;5035381;28;20092;-71
2023/04/24 02:34:16;;;;;;;5.10;4.60;;;9.90;99.90;;;;;;5035561;28;20557;-71
2023/04/24 02:36:41;;;;;;;4.78;4.07;;;9.90;99.90;;;;;;5035698;28;20037;-71
2023/04/24 02:39:07;;;;;;;5.50;4.63;;;9.90;99.90;;;;;;5035478;28;20413;-71
2023/04/24 02:41:33;;;;;;;4.40;4.07;;;9.90;99.90;;;;;;5035443;28;20052;-71
2023/04/24 02:43:59;;;;;;;4.20;3.80;;;9.80;99.90;;;;;;5035401;28;20051;-71
2023/04/24 02:46:25;;;;;;;4.78;4.38;;;9.90;99.90;;;;;;5035190;28;20045;-71
2023/04/24 02:48:50;;;;;;;5.72;3.58;;;9.80;99.90;;;;;;5035476;28;20179;-71
2023/04/24 02:51:16;;;;;;;4.57;3.80;;;9.80;99.90;;;;;;5018899;28;20485;-71
2023/04/24 02:53:42;;;;;;;3.63;3.33;;;9.80;99.90;;;;;;5035582;28;20132;-71
2023/04/24 02:56:07;;;;;;;4.30;3.90;;;9.70;99.90;;;;;;5035126;28;20037;-71
2023/04/24 02:58:33;;;;;;;4.38;3.50;;;9.80;99.90;;;;;;5035313;28;20072;-71
2023/04/24 03:01:00;;;;;;;5.32;3.53;;;9.80;99.90;;;;;;5035217;28;20094;-71
2023/04/24 03:03:26;;;;;;;4.28;3.50;;;9.70;99.90;;;;;;5035164;28;20045;-71
2023/04/24 03:05:52;;;;;;;4.20;3.08;;;9.70;99.90;;;;;;5035280;28;20039;-71
2023/04/24 03:08:18;;;;;;;3.33;3.03;;;9.70;99.90;;;;;;5035001;28;20102;-71
2023/04/24 03:10:44;;;;;;;5.45;2.65;;;9.70;99.90;;;;;;5035357;28;20041;-71
2023/04/24 03:13:09;;;;;;;2.95;2.40;;;9.70;99.90;;;;;;5035029;28;20044;-71
2023/04/24 03:15:35;;;;;;;3.70;2.53;;;9.70;99.90;;;;;;5035082;28;20122;-71
2023/04/24 03:18:01;;;;;;;2.85;2.38;;;9.70;99.90;;;;;;5018547;28;20119;-71
2023/04/24 03:20:26;;;;;;;2.42;2.17;;;9.70;99.90;;;;;;5035010;28;20045;-71
2023/04/24 03:22:52;;;;;;;2.53;2.25;;;9.70;99.90;;;;;;5034984;28;20094;-71
2023/04/24 03:25:18;;;;;;;2.65;2.28;;;9.70;99.90;;;;;;5034933;28;20051;-71
2023/04/24 03:27:43;;;;;;;4.22;2.50;;;9.60;99.90;;;;;;5034896;28;20037;-70
2023/04/24 03:30:10;;;;;;;2.80;2.50;;;9.60;99.90;;;;;;5034907;28;20068;-71
2023/04/24 03:32:35;;;;;;;3.08;2.78;;;9.70;99.90;;;;;;5035094;28;20094;-71
2023/04/24 03:35:01;;;;;;;4.18;3.40;;;9.60;99.90;;;;;;5034839;28;20123;-71
2023/04/24 03:37:27;;;;;;;3.25;2.70;;;9.60;99.90;;;;;;5035097;28;20038;-70
2023/04/24 03:39:52;;;;;;;3.55;2.95;;;9.60;99.90;;;;;;5035117;28;20578;-71
2023/04/24 03:42:18;;;;;;;3.40;3.10;;;9.60;99.90;;;;;;5034809;28;20501;-71
2023/04/24 03:44:44;;;;;;;3.97;3.50;;;9.60;99.90;;;;;;5038007;28;20040;-71
2023/04/24 03:47:09;;;;;;;4.40;3.70;;;9.50;99.90;;;;;;5038409;28;20417;-71
2023/04/24 03:49:35;;;;;;;4.32;3.92;;;9.60;99.90;;;;;;5038567;28;20037;-71
2023/04/24 03:52:01;;;;;;;3.85;3.45;;;9.60;99.90;;;;;;5038533;28;20069;-71
2023/04/24 03:54:27;;;;;;;5.32;4.28;;;9.60;99.90;;;;;;5038472;28;20041;-71
2023/04/24 03:56:52;;;;;;;6.72;4.25;;;9.60;99.90;;;;;;5038563;28;20033;-70
2023/04/24 03:59:18;;;;;;;4.38;3.97;;;9.60;99.90;;;;;;5038694;28;20497;-71
2023/04/24 04:01:45;;;;;;;6.00;4.15;;;9.60;99.90;;;;;;5038320;28;20037;-71
2023/04/24 04:04:11;;;;;;;4.30;4.00;;;9.50;99.90;;;;;;5038336;28;20390;-71
2023/04/24 04:06:37;;;;;;;5.90;4.00;;;9.50;99.90;;;;;;5038436;28;20128;-71
2023/04/24 04:09:03;;;;;;;3.78;3.47;;;9.50;99.90;;;;;;5038297;28;20040;-71
2023/04/24 04:11:30;;;;;;;4.00;3.60;;;9.50;99.90;;;;;;5038131;28;20041;-71
2023/04/24 04:13:56;;;;;;;4.13;2.80;;;9.50;99.90;;;;;;5038099;28;20052;-71
2023/04/24 04:16:22;;;;;;;4.32;2.88;;;9.60;99.90;;;;;;5038039;28;20045;-70
2023/04/24 04:18:48;;;;;;;2.45;1.92;;;9.60;99.90;;;;;;5038112;28;20048;-71
2023/04/24 04:21:13;;;;;;;1.77;1.48;;;9.60;99.90;;;;;;5021547;28;20047;-71
2023/04/24 04:23:39;;;;;;;1.63;1.20;;;9.50;99.90;;;;;;5038281;28;20041;-71
2023/04/24 04:26:05;;;;;;;3.33;1.10;;;9.60;99.90;;;;;;5038121;28;20039;-71
2023/04/24 04:28:32;;;;;;;1.55;0.88;;;9.60;99.90;;;;;;5037868;28;20397;-71
2023/04/24 04:30:58;;;;;;;0.68;0.60;;;9.50;99.90;;;;;;5037810;28;20045;-71
2023/04/24 04:33:25;;;;;;;1.38;0.73;;;9.60;99.90;;;;;;5037781;28;20098;-71
2023/04/24 04:35:53;;;;;;;0.98;0.50;;;9.50;99.90;;;;;;5021390;28;20110;-71
2023/04/24 04:38:19;;;;;;;1.85;0.60;;;9.50;99.90;;;;;;5037882;28;20045;-71
2023/04/24 04:40:45;;;;;;;0.57;0.50;;;9.50;99.90;;;;;;5037537;28;20039;-71
2023/04/24 04:43:11;;;;;;;1.23;0.45;;;9.40;99.90;;;;;;5037524;28;20440;-71
2023/04/24 04:45:38;;;;;;;3.03;0.70;;;9.40;99.90;;;;;;5037395;28;20041;-71
2023/04/24 04:48:05;;;;;;;0.88;0.60;;;9.40;99.90;;;;;;5037673;28;20045;-71
2023/04/24 04:50:31;;;;;;;1.27;0.70;;;9.40;99.90;;;;;;5037324;28;20102;-71
2023/04/24 04:52:57;;;;;;;1.88;0.75;;;9.30;99.90;;;;;;5037637;28;20091;-71
2023/04/24 04:55:22;;;;;;;1.02;0.80;;;9.30;99.90;;;;;;5036968;28;20086;-71
2023/04/24 04:57:48;;;;;;;1.48;0.95;;;9.30;99.90;;;;;;5037231;28;20044;-71
2023/04/24 05:00:14;;;;;;;1.17;1.08;;;9.30;99.90;;;;;;5037278;28;20106;-71
2023/04/24 05:02:40;;;;;;;4.32;1.50;;;9.30;99.90;;;;;;5020876;28;20045;-71
2023/04/24 05:05:06;;;;;;;2.13;1.50;;;9.30;99.90;;;;;;5037345;28;20060;-71
2023/04/24 05:07:32;;;;;;;1.80;1.50;;;9.30;99.90;;;;;;5037254;28;20045;-71
2023/04/24 05:09:58;;;;;;;3.25;2.22;;;9.40;99.90;;;;;;5036929;28;20405;-71
2023/04/24 05:12:23;;;;;;;3.03;2.10;;;9.30;99.90;;;;;;5020519;28;20033;-71
2023/04/24 05:14:49;;;;;;;4.95;2.70;;;9.30;99.90;;;;;;5020474;28;20075;-71
2023/04/24 05:17:15;;;;;;;2.83;2.40;;;9.30;99.90;;;;;;5036843;28;20037;-71
2023/04/24 05:19:40;;;;;;;4.57;2.85;;;9.30;99.90;;;;;;5036860;28;20052;-71
2023/04/24 05:22:06;;;;;;;3.35;2.22;;;9.30;99.90;;;;;;5036849;28;20048;-71
2023/04/24 05:24:36;;;;;;;2.90;2.50;;;9.30;99.90;;;;;;5036819;28;20047;-71
2023/04/24 05:27:02;;;;;;;3.20;2.50;;;9.40;99.90;;;;;;5036727;28;20041;-71
2023/04/24 05:29:30;;;;;;;3.83;2.53;;;9.30;99.90;;;;;;5020181;28;20072;-71
2023/04/24 05:31:56;;;;;;;3.00;2.35;;;9.30;99.90;;;;;;5036866;28;20107;-71
2023/04/24 05:34:22;;;;;;;4.07;2.58;;;9.30;99.90;;;;;;5036842;28;20490;-71
2023/04/24 05:36:48;;;;;;;5.97;2.55;;;9.30;99.90;;;;;;5036553;28;20045;-71
2023/04/24 05:39:14;;;;;;;5.18;2.58;;;9.40;99.90;;;;;;5036433;28;20152;-71
2023/04/24 05:41:40;;;;;;;3.17;2.35;;;9.40;99.90;;;;;;5019905;28;20041;-71
2023/04/24 05:44:06;;;;;;;3.63;2.75;;;9.40;99.90;;;;;;5036619;28;20106;-71
2023/04/24 05:46:31;;;;;;;2.90;2.28;;;9.40;99.90;;;;;;5019752;28;20037;-70
2023/04/24 05:48:57;;;;;;;2.33;2.08;;;9.40;99.90;;;;;;5036240;28;20041;-71
2023/04/24 05:51:23;;;;;;;3.42;1.80;;;9.50;99.90;;;;;;5036529;28;20040;-71
2023/04/24 05:53:49;;;;;;;3.63;2.95;;;9.50;99.90;;;;;;5019863;28;20041;-71
2023/04/24 05:56:15;;;;;;;3.63;1.90;;;9.60;99.90;;;;;;5036378;28;20059;-71
2023/04/24 05:58:41;;;;;;;3.60;2.40;;;9.60;99.90;;;;;;5036119;28;20041;-71
2023/04/24 06:01:06;;;;;;;3.00;2.38;;;9.70;99.90;;;;;;5036058;28;20052;-71
2023/04/24 06:03:32;;;;;;;2.95;2.03;;;9.70;99.90;;;;;;5019962;28;20037;-71
2023/04/24 06:05:58;;;;;;;3.80;2.70;;;9.80;99.90;;;;;;5035516;28;20608;-71
2023/04/24 06:08:24;;;;;;;3.47;2.45;;;9.80;99.90;;;;;;5036073;28;20447;-71
2023/04/24 06:10:49;;;;;;;3.33;2.53;;;9.90;99.90;;;;;;5035907;28;20437;-71
2023/04/24 06:13:15;;;;;;;3.10;2.22;;;9.90;99.90;;;;;;5035832;28;20033;-71
2023/04/24 06:15:41;;;;;;;2.53;1.83;;;10.00;99.90;;;;;;5036144;28;20037;-71
2023/04/24 06:18:09;;;;;;;3.28;2.55;;;10.00;99.90;;;;;;5035708;28;20033;-71
2023/04/24 06:20:35;;;;;;;5.00;2.65;;;10.00;99.90;;;;;;5035783;28;20049;-71
2023/04/24 06:23:01;;;;;;;4.32;2.40;;;10.10;99.90;;;;;;5035755;28;20033;-71
2023/04/24 06:25:27;;;;;;;2.38;1.85;;;10.10;99.90;;;;;;5035782;28;20044;-71
2023/04/24 06:27:55;;;;;;;4.00;2.97;;;10.20;99.90;;;;;;5019180;28;20049;-71
2023/04/24 06:30:21;;;;;;;1.75;1.38;;;10.20;99.90;;;;;;5035638;28;20037;-71
2023/04/24 06:32:46;;;;;;;1.52;1.27;;;10.20;99.90;;;;;;5035721;28;20064;-71
2023/04/24 06:35:12;;;;;;;1.25;1.08;;;10.20;99.90;;;;;;5035715;28;20082;-71
2023/04/24 06:37:42;;;;;;;4.38;1.45;;;10.30;99.90;;;;;;5035712;28;20060;-71
2023/04/24 06:40:08;;;;;;;1.67;1.33;;;10.30;99.90;;;;;;5019213;28;20044;-71
2023/04/24 06:42:34;;;;;;;2.30;1.92;;;10.30;99.90;;;;;;5035432;28;20454;-71
2023/04/24 06:45:00;;;;;;;3.28;1.90;;;10.40;99.90;;;;;;5035365;28;20094;-71
2023/04/24 06:47:29;;;;;;;5.82;2.47;;;10.30;99.90;;;;;;5035592;28;20044;-71
2023/04/24 06:49:55;;;;;;;3.47;2.45;;;10.40;99.90;;;;;;5018767;28;20047;-71
2023/04/24 06:52:21;;;;;;;4.30;2.85;;;10.40;99.90;;;;;;5035729;28;20041;-71
2023/04/24 06:54:46;;;;;;;3.78;2.45;;;10.40;99.90;;;;;;5019252;28;20123;-71
2023/04/24 06:57:12;;;;;;;4.10;2.78;;;10.40;99.90;;;;;;5035247;28;20033;-71
2023/04/24 06:59:38;;;;;;;4.60;2.72;;;10.40;99.90;;;;;;5035465;28;20049;-71
2023/04/24 07:02:04;;;;;;;5.60;2.88;;;10.40;99.90;;;;;;5035306;28;20512;-71
2023/04/24 07:04:30;;;;;;;7.05;3.42;;;10.40;99.90;;;;;;5035112;28;20079;-71
2023/04/24 07:06:57;;;;;;;5.57;3.55;;;10.40;99.90;;;;;;5034916;28;20505;-71
2023/04/24 07:09:25;;;;;;;5.25;3.50;;;10.40;99.90;;;;;;5034919;28;20094;-71
2023/04/24 07:11:51;;;;;;;5.95;3.70;;;10.40;99.90;;;;;;5035281;28;20141;-71
2023/04/24 07:14:17;;;;;;;5.43;4.65;;;10.50;99.90;;;;;;5034997;28;20033;-71
2023/04/24 07:16:43;;;;;;;8.32;5.20;;;10.40;99.90;;;;;;5034909;28;20029;-71
2023/04/24 07:19:09;;;;;;;6.63;5.00;;;10.40;99.90;;;;;;5038898;28;20044;-71
2023/04/24 07:21:35;;;;;;;7.25;4.47;;;10.40;99.90;;;;;;5039127;28;20048;-71
2023/04/24 07:24:00;;;;;;;6.68;4.72;;;10.40;99.90;;;;;;5039057;28;20033;-71
2023/04/24 07:26:28;;;;;;;7.07;4.53;;;10.40;99.90;;;;;;5038873;28;20043;-71
2023/04/24 07:28:54;;;;;;;7.55;5.05;;;10.40;99.90;;;;;;5039033;28;20516;-71
2023/04/24 07:31:20;;;;;;;7.95;3.45;;;10.40;99.90;;;;;;5022603;28;20090;-71
2023/04/24 07:33:46;;;;;;;8.60;3.67;;;10.40;99.90;;;;;;5039058;28;20048;-71
2023/04/24 07:36:15;;;;;;;6.82;3.17;;;10.30;99.90;;;;;;5038735;28;20409;-71
2023/04/24 07:38:42;;;;;;;5.65;2.72;;;10.40;99.90;;;;;;5022246;28;20551;-71
2023/04/24 07:41:08;;;;;;;7.28;3.10;;;10.40;99.90;;;;;;5038732;28;20520;-71
2023/04/24 07:43:34;;;;;;;4.18;1.90;;;10.40;99.90;;;;;;5038656;28;20037;-71
2023/04/24 07:45:59;;;;;;;4.05;1.85;;;10.30;99.90;;;;;;5038415;28;20040;-70
2023/04/24 07:48:26;;;;;;;5.00;2.00;;;10.30;99.90;;;;;;5038441;28;20033;-71
2023/04/24 07:50:52;;;;;;;4.75;1.73;;;10.30;99.90;;;;;;5038748;28;20559;-71
2023/04/24 07:53:17;;;;;;;4.40;2.00;;;10.20;99.90;;;;;;5038479;28;20040;-71
2023/04/24 07:55:43;;;;;;;3.80;1.98;;;10.20;99.90;;;;;;5038513;28;20439;-71
2023/04/24 07:58:12;;;;;;;6.72;2.05;;;10.20;99.90;;;;;;5056508;28;20040;-71
2023/04/24 08:00:37;;;;;;;5.95;2.20;;;10.20;99.90;;;;;;5038674;28;20048;-71
2023/04/24 08:03:03;;;;;;;4.57;1.88;;;10.10;99.90;;;;;;5038366;28;20501;-71
2023/04/24 08:05:29;;;;;;;4.30;1.92;;;10.10;99.90;;;;;;5038233;28;20037;-71
2023/04/24 08:07:55;;;;;;;5.95;2.05;;;10.20;99.90;;;;;;5038104;28;20037;-71
2023/04/24 08:10:24;;;;;;;6.43;1.90;;;10.10;99.90;;;;;;5038151;28;20040;-71
2023/04/24 08:12:50;;;;;;;4.60;1.90;;;10.10;99.90;;;;;;5038411;28;20123;-71
2023/04/24 08:15:16;;;;;;;7.18;2.80;;;10.20;99.90;;;;;;5021654;28;20627;-71
2023/04/24 08:17:41;;;;;;;9.93;3.60;;;10.20;99.90;;;;;;5038248;28;20041;-71
2023/04/24 08:20:13;;;;;;;8.45;4.35;;;10.10;99.90;;;;;;5038036;28;20493;-71
2023/04/24 08:22:40;;;;;;;11.10;6.00;;;10.10;99.90;;;;;;5038025;28;20053;-71
2023/04/24 08:25:06;;;;;;;11.75;6.65;;;10.10;99.90;;;;;;5037898;28;20124;-71
2023/04/24 08:27:32;;;;;;;14.55;7.72;;;10.00;99.90;;;;;;5021268;28;20041;-71
2023/04/24 08:29:58;;;;;;;15.75;8.90;;;10.00;99.90;;;;;;5037020;28;20033;-71
2023/04/24 08:32:24;;;;;;;16.80;9.57;;;10.00;99.90;;;;;;5037804;28;20041;-71
2023/04/24 08:34:52;;;;;;;19.27;9.52;;;10.00;99.90;;;;;;5037804;28;20037;-71
2023/04/24 08:37:18;;;;;;;18.35;9.25;;;10.00;99.90;;;;;;5021103;28;20055;-71
2023/04/24 08:39:43;;;;;;;16.45;9.05;;;10.00;99.90;;;;;;5037642;28;20037;-71
2023/04/24 08:42:11;;;;;;;19.10;9.52;;;10.00;99.90;;;;;;5021183;28;20037;-71
2023/04/24 08:44:37;;;;;;;20.05;9.95;;;9.90;99.90;;;;;;5037488;28;20057;-71
2023/04/24 08:47:03;;;;;;;16.67;9.57;;;9.90;99.90;;;;;;5037380;28;20045;-71
2023/04/24 08:49:29;;;;;;;18.52;9.50;;;9.80;99.90;;;;;;5037367;28;20083;-71
2023/04/24 08:51:55;;;;;;;18.52;9.40;;;9.90;99.90;;;;;;5037306;28;20065;-71
2023/04/24 08:54:21;;;;;;;15.77;9.40;;;9.90;99.90;;;;;;5037663;28;20170;-71
2023/04/24 08:56:48;;;;;;;17.02;10.52;;;9.80;99.90;;;;;;5037211;28;20563;-71
2023/04/24 08:59:15;;;;;;;18.65;11.07;;;9.80;99.90;;;;;;5037233;28;20043;-71
2023/04/24 09:01:41;;;;;;;19.48;12.20;;;9.80;99.90;;;;;;5037292;28;20041;-71
2023/04/24 09:04:09;;;;;;;16.35;11.85;;;9.80;99.90;;;;;;5020653;28;20043;-71
2023/04/24 09:06:35;;;;;;;17.88;11.27;;;9.70;99.90;;;;;;5037093;28;20048;-71
2023/04/24 09:09:03;;;;;;;19.35;12.52;;;9.60;99.90;;;;;;5037059;28;20045;-71
2023/04/24 09:11:30;;;;;;;21.50;13.70;;;9.60;99.90;;;;;;5037024;28;20412;-71
2023/04/24 09:13:57;;;;;;;19.50;12.63;;;9.50;99.90;;;;;;5036999;28;20033;-71
2023/04/24 09:16:25;;;;;;;23.55;13.70;;;9.50;99.90;;;;;;5036981;28;20037;-71
2023/04/24 09:18:51;;;;;;;20.67;14.32;;;9.50;99.90;;;;;;5036900;28;20076;-71
2023/04/24 09:21:17;;;;;;;19.48;12.85;;;9.50;99.90;;;;;;5036794;28;20041;-70
2023/04/24 09:23:42;;;;;;;19.58;13.25;;;9.50;99.90;;;;;;5036852;28;20418;-71
2023/04/24 09:26:10;;;;;;;17.60;13.43;;;9.50;99.90;;;;;;5036729;28;20107;-71
2023/04/24 09:28:38;;;;;;;19.02;11.45;;;9.50;99.90;;;;;;5036685;28;20565;-71
2023/04/24 09:31:06;;;;;;;18.40;11.45;;;9.60;99.90;;;;;;5036609;28;20084;-70
2023/04/24 09:33:32;;;;;;;17.80;11.07;;;9.60;99.90;;;;;;5036621;28;20037;-71
2023/04/24 09:35:59;;;;;;;13.77;9.45;;;9.60;99.90;;;;;;5036782;28;20041;-71
2023/04/24 09:38:38;;;;;;;13.25;9.02;;;9.60;99.90;;;;;;5036603;28;20048;-71
2023/04/24 09:41:06;;;;;;;15.07;9.00;;;9.70;99.90;;;;;;5035665;28;20096;-71
2023/04/24 09:43:32;;;;;;;15.60;7.90;;;9.60;99.90;;;;;;5036474;28;20033;-71
2023/04/24 09:45:59;;;;;;;12.52;7.00;;;9.60;99.90;;;;;;5036260;28;20037;-71
2023/04/24 09:48:38;;;;;;;13.93;7.38;;;9.60;99.90;;;;;;5036694;28;20516;-71
2023/04/24 09:51:10;;;;;;;13.57;7.82;;;9.60;99.90;;;;;;5036287;28;20481;-71
2023/04/24 09:53:36;;;;;;;13.68;7.28;;;9.60;99.90;;;;;;5036345;28;20055;-71
2023/04/24 09:56:09;;;;;;;15.90;7.63;;;9.60;99.90;;;;;;5036154;28;20045;-71
2023/04/24 09:58:36;;;;;;;13.88;6.85;;;9.60;99.90;;;;;;5036137;28;20123;-71
2023/04/24 10:01:02;;;;;;;17.42;7.18;;;9.60;99.90;;;;;;5036096;28;20044;-70
2023/04/24 10:03:31;;;;;;;17.45;6.85;;;9.60;99.90;;;;;;5035975;28;20037;-71
2023/04/24 10:06:01;;;;;;;13.77;6.88;;;9.60;99.90;;;;;;5035930;28;20532;-71
2023/04/24 10:08:32;;;;;;;10.65;5.72;;;9.60;99.90;;;;;;5036099;28;20045;-71
2023/04/24 10:10:59;;;;;;;16.48;6.97;;;9.60;99.90;;;;;;5035962;28;20072;-71
2023/04/24 10:13:25;;;;;;;18.92;6.72;;;9.70;99.90;;;;;;5019422;28;20045;-71
2023/04/24 10:15:51;;;;;;;14.30;5.75;;;9.80;99.90;;;;;;5019816;28;20048;-71
2023/04/24 10:18:17;;;;;;;16.27;6.28;;;9.80;99.90;;;;;;5035864;28;20037;-71
2023/04/24 10:20:43;;;;;;;11.10;4.40;;;10.00;99.90;;;;;;5019354;28;20424;-71
2023/04/24 10:23:10;;;;;;;11.45;4.88;;;10.00;99.90;;;;;;5035733;28;20123;-71
2023/04/24 10:25:36;;;;;;;10.90;4.05;;;10.00;99.90;;;;;;5019198;28;20076;-71
2023/04/24 10:28:03;;;;;;;10.43;4.65;;;10.00;99.90;;;;;;5019068;28;20045;-71
2023/04/24 10:30:36;;;;;;;9.63;3.75;;;10.00;99.90;;;;;;5019037;28;20438;-70
2023/04/24 10:33:06;;;;;;;;;;;10.00;99.90;;;;;;5037002;28;20140;-71
2023/04/24 10:35:42;;;;;;;9.23;3.35;;;9.90;99.90;;;;;;5035865;28;19956;-71
2023/04/24 10:38:18;;;;;;;10.18;3.38;;;9.80;99.90;;;;;;5035631;28;20374;-70
2023/04/24 10:40:44;;;;;;;9.57;3.15;;;9.80;99.90;;;;;;5035678;28;20076;-70
2023/04/24 10:43:10;;;;;;;12.93;3.42;;;9.80;99.90;;;;;;5035422;28;20472;-71
2023/04/24 10:45:37;;;;;;;13.10;3.13;;;9.70;99.90;;;;;;5018799;28;20049;-70
2023/04/24 10:48:13;;;;;;;13.63;3.10;;;9.70;99.90;;;;;;5035301;28;20420;-71
2023/04/24 10:50:52;;;;;;;11.13;3.17;;;9.70;99.90;;;;;;5018958;28;20115;-70
2023/04/24 10:53:24;;;;;;;10.73;2.83;;;9.70;99.90;;;;;;5035049;28;20140;-70
2023/04/24 10:56:13;;;;;;;10.77;3.35;;;9.70;99.90;;;;;;5035294;28;20037;-70
2023/04/24 10:58:47;;;;;;;12.05;2.95;;;9.70;99.90;;;;;;5035501;28;20409;-71
2023/04/24 11:01:32;;;;;;;13.55;2.95;;;9.80;99.90;;;;;;5035094;28;20383;-70
2023/04/24 11:03:59;;;;;;;14.93;3.00;;;9.90;99.90;;;;;;5035442;28;20450;-71
2023/04/24 11:06:45;;;;;;;12.15;2.80;;;10.00;99.90;;;;;;5018663;28;20040;-71
2023/04/24 11:09:16;;;;;;;12.63;2.60;;;10.10;99.90;;;;;;5034961;28;20045;-71
2023/04/24 11:11:46;;;;;;;11.15;2.55;;;10.20;99.90;;;;;;5035095;28;20440;-71
2023/04/24 11:14:15;;;;;;;10.93;3.00;;;10.20;99.90;;;;;;5018585;28;20037;-70
2023/04/24 11:16:45;;;;;;;9.75;2.22;;;10.20;99.90;;;;;;5019291;28;20033;-70
2023/04/24 11:19:14;;;;;;;12.95;2.70;;;10.10;99.90;;;;;;5034998;28;20052;-71
2023/04/24 11:22:03;;;;;;;14.50;2.53;;;10.10;99.90;;;;;;5034950;28;20045;-71
2023/04/24 11:24:39;;;;;;;12.55;2.80;;;10.00;99.90;;;;;;5034900;28;20124;-71
2023/04/24 11:27:07;;;;;;;7.07;2.17;;;10.00;99.90;;;;;;5018432;28;20041;-70
2023/04/24 11:29:41;;;;;;;8.13;2.15;;;9.90;99.90;;;;;;5035853;28;20063;-71
2023/04/24 11:32:18;;;;;;;9.98;2.35;;;9.90;99.90;;;;;;5034882;28;20041;-70
2023/04/24 11:34:47;;;;;;;10.02;1.92;;;9.90;99.90;;;;;;5035252;28;20033;-71
2023/04/24 11:37:13;;;;;;;8.23;1.95;;;9.90;99.90;;;;;;5034770;28;20072;-71
2023/04/24 11:39:38;;;;;;;14.27;2.55;;;9.90;99.90;;;;;;5035087;28;20102;-70
2023/04/24 11:42:06;;;;;;;11.77;2.58;;;10.00;99.90;;;;;;5034861;28;20440;-70
2023/04/24 11:44:34;;;;;;;6.28;1.33;;;10.10;99.90;;;;;;5018351;28;20485;-71
2023/04/24 11:46:59;;;;;;;8.88;2.15;;;10.20;99.90;;;;;;5034894;28;20040;-71
2023/04/24 11:49:25;;;;;;;9.68;2.10;;;10.20;99.90;;;;;;5034911;28;20370;-71
2023/04/24 11:51:55;;;;;;;8.35;1.77;;;10.20;99.90;;;;;;5034722;28;20033;-71
2023/04/24 11:54:21;;;;;;;8.48;1.70;;;10.10;99.90;;;;;;5034666;28;20520;-70
2023/04/24 11:56:47;;;;;;;7.10;1.75;;;10.10;99.90;;;;;;5034951;28;20048;-71
2023/04/24 11:59:12;;;;;;;6.43;1.45;;;10.00;99.90;;;;;;5034905;28;20143;-71
2023/04/24 12:01:48;;;;;;;10.45;2.25;;;10.00;99.90;;;;;;5034867;28;20521;-71
2023/04/24 12:04:17;;;;;;;7.55;1.60;;;9.90;99.90;;;;;;5035344;28;20048;-72
2023/04/24 12:07:02;;;;;;;7.45;1.73;;;9.90;99.90;;;;;;5021826;28;20043;-71
2023/04/24 12:09:28;;;;;;;8.27;1.85;;;9.90;99.90;;;;;;5021738;28;20032;-71
2023/04/24 12:11:58;;;;;;;13.57;2.13;;;10.00;99.90;;;;;;5021691;28;20037;-71
2023/04/24 12:14:24;;;;;;;10.35;2.33;;;10.00;99.90;;;;;;5038134;28;20128;-71
2023/04/24 12:16:50;;;;;;;9.10;1.67;;;10.10;99.90;;;;;;5038177;28;20036;-71
2023/04/24 12:19:22;;;;;;;9.43;2.00;;;10.10;99.90;;;;;;5038130;28;20041;-71
2023/04/24 12:22:03;;;;;;;10.67;1.47;;;10.10;99.90;;;;;;5038197;28;20033;-71
2023/04/24 12:24:30;;;;;;;7.53;1.70;;;10.20;99.90;;;;;;5021442;28;20036;-71
2023/04/24 12:26:57;;;;;;;3.63;1.40;;;10.20;99.90;;;;;;5021348;28;20051;-71
2023/04/24 12:29:23;;;;;;;6.97;1.42;;;10.30;99.90;;;;;;5037783;28;20519;-71
2023/04/24 12:31:50;;;;;;;8.15;1.70;;;10.40;99.90;;;;;;5037824;28;20044;-70
2023/04/24 12:34:25;;;;;;;6.32;1.73;;;10.50;99.90;;;;;;5037811;28;20048;-71
2023/04/24 12:36:51;;;;;;;4.03;1.02;;;10.70;99.90;;;;;;5037955;28;20037;-70
2023/04/24 12:39:20;;;;;;;5.68;1.08;;;10.80;99.90;;;;;;5037640;28;20049;-71
2023/04/24 12:41:59;;;;;;;7.90;1.20;;;10.90;99.90;;;;;;5037677;28;20037;-70
2023/04/24 12:44:35;;;;;;;4.10;0.90;;;10.80;99.90;;;;;;5038711;28;20059;-71
2023/04/24 12:47:01;;;;;;;4.93;0.95;;;10.80;99.90;;;;;;5037501;28;20040;-71